Time;durP1;ratioP1;P1;durP2;ratioP2;P2;SDS_P1;SDS_P2;PMS_P1;PMS_P2;Temp;Humidity;BMP_temperature;BMP_pressure;BME280_temperature;BME280_humidity;BME280_pressure;Samples;Min_cycle;Max_cycle;Signal;HPM_P1;HPM_P2
2022/12/02 00:01:00;;;;;;;22.70;12.48;;;4.10;99.90;;;;;;5102833;27;20047;-70
2022/12/02 00:03:26;;;;;;;26.60;13.02;;;4.10;99.90;;;;;;5102362;27;20443;-70
2022/12/02 00:05:54;;;;;;;28.25;13.48;;;4.90;99.90;;;;;;5153500;27;20067;-70
2022/12/02 00:08:25;;;;;;;27.98;13.63;;;4.70;99.90;;;;;;5137364;27;20061;-70
2022/12/02 00:10:53;;;;;;;26.15;13.50;;;4.70;99.90;;;;;;5137290;27;20126;-70
2022/12/02 00:13:28;;;;;;;29.33;12.95;;;4.00;99.90;;;;;;5137522;27;20471;-70
2022/12/02 00:15:58;;;;;;;26.65;13.50;;;4.60;99.90;;;;;;5136846;27;20406;-70
2022/12/02 00:18:25;;;;;;;26.08;13.57;;;5.00;99.90;;;;;;5137042;27;20532;-70
2022/12/02 00:20:51;;;;;;;26.52;12.95;;;4.40;99.90;;;;;;5137596;27;20086;-70
2022/12/02 00:23:16;;;;;;;30.10;14.40;;;4.50;99.90;;;;;;5136770;27;20094;-70
2022/12/02 00:25:53;;;;;;;30.75;13.45;;;4.30;99.90;;;;;;5119477;27;20051;-70
2022/12/02 00:28:19;;;;;;;29.40;15.15;;;4.70;99.90;;;;;;5137474;27;20046;-70
2022/12/02 00:30:45;;;;;;;27.45;12.38;;;4.60;99.90;;;;;;5136992;27;20382;-70
2022/12/02 00:33:11;;;;;;;31.67;14.25;;;4.10;99.90;;;;;;5137089;27;20047;-70
2022/12/02 00:35:37;;;;;;;35.13;14.60;;;4.00;99.90;;;;;;5153963;27;20047;-70
2022/12/02 00:38:04;;;;;;;34.63;15.93;;;3.90;99.90;;;;;;5136704;27;20040;-70
2022/12/02 00:40:29;;;;;;;28.80;13.18;;;3.80;99.90;;;;;;5118687;27;20086;-70
2022/12/02 00:46:30;;;;;;;30.35;14.05;;;4.20;99.90;;;;;;5136283;27;20094;-70
2022/12/02 00:48:25;;;;;;;30.52;13.10;;;4.30;99.90;;;;;;5136156;27;20039;-70
2022/12/02 00:50:50;;;;;;;27.20;13.82;;;4.20;99.90;;;;;;5101968;27;20359;-70
2022/12/02 00:53:16;;;;;;;33.63;14.35;;;4.60;99.90;;;;;;5136815;27;20039;-70
2022/12/02 00:55:42;;;;;;;30.20;12.90;;;4.20;99.90;;;;;;5119188;27;20427;-70
2022/12/02 00:58:07;;;;;;;28.00;14.57;;;4.00;99.90;;;;;;5135088;27;20039;-70
2022/12/02 01:00:33;;;;;;;26.85;12.73;;;3.90;99.90;;;;;;5118095;27;20043;-70
2022/12/02 01:02:59;;;;;;;28.88;13.98;;;3.90;99.90;;;;;;5136020;27;20147;-70
2022/12/02 01:05:24;;;;;;;33.05;14.75;;;4.40;99.90;;;;;;5117955;27;20062;-70
2022/12/02 01:07:50;;;;;;;30.10;14.60;;;4.90;99.90;;;;;;5117966;27;20367;-70
2022/12/02 01:10:16;;;;;;;31.00;13.73;;;4.50;99.90;;;;;;5136178;27;20503;-70
2022/12/02 01:12:41;;;;;;;29.67;15.02;;;3.70;99.90;;;;;;5136121;27;20043;-70
2022/12/02 01:15:08;;;;;;;31.85;14.45;;;3.80;99.90;;;;;;5136373;27;20047;-70
2022/12/02 01:17:34;;;;;;;36.63;15.27;;;3.80;99.90;;;;;;5136848;27;20480;-70
2022/12/02 01:19:59;;;;;;;28.25;13.98;;;3.90;99.90;;;;;;5152239;27;20079;-70
2022/12/02 01:22:25;;;;;;;29.40;14.68;;;4.10;99.90;;;;;;5117581;27;20043;-70
2022/12/02 01:24:51;;;;;;;30.65;14.15;;;4.10;99.90;;;;;;5151981;27;20069;-70
2022/12/02 01:27:16;;;;;;;29.80;13.77;;;4.40;99.90;;;;;;5135885;27;20068;-70
2022/12/02 01:29:42;;;;;;;26.58;13.27;;;3.80;99.90;;;;;;5135748;27;20089;-70
2022/12/02 01:32:08;;;;;;;27.55;13.85;;;3.90;99.90;;;;;;5101192;27;20054;-70
2022/12/02 01:34:34;;;;;;;27.88;13.00;;;3.80;99.90;;;;;;5135776;27;20475;-70
2022/12/02 01:36:59;;;;;;;27.77;13.20;;;3.70;99.90;;;;;;5135620;27;20050;-70
2022/12/02 01:39:25;;;;;;;25.85;12.73;;;4.30;99.90;;;;;;5117242;27;20039;-70
2022/12/02 01:41:51;;;;;;;30.50;14.02;;;4.10;99.90;;;;;;5117177;27;20051;-70
2022/12/02 01:44:16;;;;;;;27.80;13.15;;;4.30;99.90;;;;;;5136142;27;20051;-70
2022/12/02 01:46:42;;;;;;;30.80;14.70;;;3.60;99.90;;;;;;5117223;27;20089;-69
2022/12/02 01:49:08;;;;;;;27.85;13.85;;;3.80;99.90;;;;;;5135141;27;20046;-70
2022/12/02 01:51:34;;;;;;;31.05;15.15;;;3.90;99.90;;;;;;5151695;27;20046;-70
2022/12/02 01:54:00;;;;;;;30.63;14.60;;;3.80;99.90;;;;;;5117963;27;20205;-70
2022/12/02 01:56:26;;;;;;;31.25;14.60;;;3.90;99.90;;;;;;5135291;27;20043;-70
2022/12/02 01:58:52;;;;;;;30.38;14.95;;;3.70;99.90;;;;;;5134635;27;20053;-70
2022/12/02 02:01:30;;;;;;;32.38;15.00;;;4.20;99.90;;;;;;5134655;27;20130;-70
2022/12/02 02:03:56;;;;;;;35.35;15.05;;;4.90;99.90;;;;;;5134846;27;20525;-71
2022/12/02 02:06:28;;;;;;;27.90;12.75;;;4.60;99.90;;;;;;5135074;27;20088;-70
2022/12/02 02:08:55;;;;;;;31.20;14.02;;;4.40;99.90;;;;;;5135616;27;20039;-70
2022/12/02 02:11:21;;;;;;;31.58;14.77;;;4.00;99.90;;;;;;5134675;27;20566;-70
2022/12/02 02:13:47;;;;;;;24.63;12.45;;;3.60;99.90;;;;;;5116705;27;20039;-70
2022/12/02 02:16:13;;;;;;;27.98;14.65;;;4.20;99.90;;;;;;5116854;27;20405;-70
2022/12/02 02:18:39;;;;;;;28.75;13.63;;;3.80;99.90;;;;;;5134845;27;20050;-70
2022/12/02 02:21:09;;;;;;;26.95;13.80;;;3.60;99.90;;;;;;5117231;27;20039;-70
2022/12/02 02:23:35;;;;;;;30.77;14.13;;;4.40;99.90;;;;;;5135389;27;20351;-70
2022/12/02 02:26:03;;;;;;;29.85;14.20;;;4.80;99.90;;;;;;5134815;27;20039;-70
2022/12/02 02:28:29;;;;;;;28.67;13.98;;;3.70;99.90;;;;;;5134345;27;20482;-70
2022/12/02 02:30:57;;;;;;;29.60;13.88;;;3.50;99.90;;;;;;5133626;27;20047;-70
2022/12/02 02:33:25;;;;;;;29.98;13.43;;;4.20;99.90;;;;;;5116539;27;20047;-70
2022/12/02 02:35:51;;;;;;;26.67;13.18;;;4.40;99.90;;;;;;5116650;27;20081;-70
2022/12/02 02:38:20;;;;;;;26.98;12.00;;;4.50;99.90;;;;;;5116424;27;20084;-70
2022/12/02 02:40:46;;;;;;;26.17;11.63;;;3.50;99.90;;;;;;5116770;27;20058;-70
2022/12/02 02:43:13;;;;;;;28.92;11.98;;;3.70;99.90;;;;;;5135013;27;20066;-70
2022/12/02 02:45:40;;;;;;;24.35;11.98;;;4.10;99.90;;;;;;5116240;28;20054;-70
2022/12/02 02:48:09;;;;;;;22.67;11.77;;;3.40;99.90;;;;;;5116228;28;20379;-70
2022/12/02 02:50:37;;;;;;;26.23;12.27;;;3.50;99.90;;;;;;5134559;27;20144;-70
2022/12/02 02:53:04;;;;;;;23.80;11.45;;;5.20;99.90;;;;;;5134447;28;20051;-71
2022/12/02 02:55:31;;;;;;;24.05;11.85;;;3.40;99.90;;;;;;5134516;28;20130;-70
2022/12/02 02:58:19;;;;;;;23.50;11.63;;;3.40;99.90;;;;;;5134638;28;20043;-70
2022/12/02 03:00:52;;;;;;;26.45;12.02;;;3.40;99.90;;;;;;5134452;28;20047;-70
2022/12/02 03:03:20;;;;;;;29.58;13.07;;;4.40;99.90;;;;;;5116324;28;20172;-70
2022/12/02 03:05:47;;;;;;;26.77;12.32;;;3.20;99.90;;;;;;5134862;28;20065;-70
2022/12/02 03:08:14;;;;;;;29.73;12.77;;;3.40;99.90;;;;;;5098982;28;20129;-70
2022/12/02 03:10:40;;;;;;;29.95;13.48;;;3.70;99.90;;;;;;5135028;27;20047;-70
2022/12/02 03:13:06;;;;;;;25.83;13.18;;;3.30;99.90;;;;;;5138562;27;20082;-70
2022/12/02 03:15:32;;;;;;;27.80;12.32;;;3.20;99.90;;;;;;5138474;27;20118;-70
2022/12/02 03:17:58;;;;;;;30.63;13.57;;;3.20;99.90;;;;;;5154466;27;20558;-70
2022/12/02 03:20:24;;;;;;;26.88;13.55;;;4.10;99.90;;;;;;5120991;27;20050;-70
2022/12/02 03:22:50;;;;;;;32.65;13.73;;;4.00;99.90;;;;;;5121054;27;20126;-70
2022/12/02 03:25:17;;;;;;;26.77;12.77;;;3.80;99.90;;;;;;5120108;27;20043;-70
2022/12/02 03:27:42;;;;;;;30.17;13.80;;;3.10;99.90;;;;;;5120105;27;20058;-70
2022/12/02 03:30:09;;;;;;;31.75;13.48;;;3.60;99.90;;;;;;5154467;27;20043;-70
2022/12/02 03:32:35;;;;;;;28.00;13.20;;;3.10;99.90;;;;;;5137796;27;20043;-70
2022/12/02 03:35:02;;;;;;;32.20;14.85;;;3.20;99.90;;;;;;5138050;27;20047;-70
2022/12/02 03:37:27;;;;;;;29.42;13.30;;;3.70;99.90;;;;;;5102648;27;20047;-70
2022/12/02 03:39:53;;;;;;;30.08;14.18;;;3.20;99.90;;;;;;5154279;27;20125;-70
2022/12/02 03:42:20;;;;;;;29.70;14.40;;;3.10;99.90;;;;;;5137864;27;20050;-70
2022/12/02 03:44:46;;;;;;;32.67;14.15;;;4.00;99.90;;;;;;5119510;27;20554;-70
2022/12/02 03:47:12;;;;;;;31.80;14.48;;;3.70;99.90;;;;;;5138352;27;20126;-70
2022/12/02 03:49:37;;;;;;;29.63;14.57;;;3.50;99.90;;;;;;5137792;27;20084;-70
2022/12/02 03:52:03;;;;;;;30.10;14.55;;;3.30;99.90;;;;;;5138583;27;20043;-70
2022/12/02 03:54:29;;;;;;;30.70;13.98;;;3.20;99.90;;;;;;5137755;27;20075;-70
2022/12/02 03:56:55;;;;;;;33.38;15.63;;;3.10;99.90;;;;;;5137682;27;20047;-70
2022/12/02 03:59:26;;;;;;;29.77;13.98;;;3.10;99.90;;;;;;5119726;27;20126;-70
2022/12/02 04:01:52;;;;;;;33.20;14.20;;;3.00;99.90;;;;;;5137698;27;20130;-70
2022/12/02 04:04:18;;;;;;;29.98;14.65;;;3.70;99.90;;;;;;5137508;27;20083;-70
2022/12/02 04:06:43;;;;;;;28.42;12.63;;;3.20;99.90;;;;;;5138304;27;20085;-70
2022/12/02 04:09:09;;;;;;;32.97;14.25;;;3.60;99.90;;;;;;5153564;27;20035;-70
2022/12/02 04:11:35;;;;;;;31.98;15.60;;;3.90;99.90;;;;;;5137376;27;20069;-70
2022/12/02 04:14:01;;;;;;;33.38;13.38;;;4.00;99.90;;;;;;5136243;27;20050;-70
2022/12/02 04:16:26;;;;;;;34.33;15.90;;;3.10;99.90;;;;;;5137837;27;20078;-70
2022/12/02 04:18:52;;;;;;;31.77;15.13;;;4.50;99.90;;;;;;5138081;27;20077;-70
2022/12/02 04:21:18;;;;;;;32.60;14.85;;;3.40;99.90;;;;;;5137233;27;20043;-70
2022/12/02 04:23:43;;;;;;;31.38;14.68;;;3.40;99.90;;;;;;5136344;27;20035;-70
2022/12/02 04:26:09;;;;;;;36.67;14.88;;;3.30;99.90;;;;;;5137970;27;20125;-70
2022/12/02 04:28:35;;;;;;;35.88;16.27;;;3.10;99.90;;;;;;5119170;27;20482;-70
2022/12/02 04:31:00;;;;;;;33.78;14.98;;;3.70;99.90;;;;;;5118876;27;20051;-70
2022/12/02 04:33:26;;;;;;;33.13;15.73;;;3.50;99.90;;;;;;5118736;27;20051;-70
2022/12/02 04:35:52;;;;;;;35.47;15.77;;;3.00;99.90;;;;;;5119121;27;20050;-70
2022/12/02 04:38:17;;;;;;;29.27;14.35;;;4.10;99.90;;;;;;5136872;27;20130;-70
2022/12/02 04:40:43;;;;;;;32.10;16.33;;;3.60;99.90;;;;;;5136883;27;20139;-70
2022/12/02 04:43:09;;;;;;;35.63;15.73;;;4.00;99.90;;;;;;5135516;27;20116;-70
2022/12/02 04:45:35;;;;;;;37.17;16.23;;;3.60;99.90;;;;;;5152819;27;20086;-70
2022/12/02 04:48:01;;;;;;;35.20;15.82;;;3.20;99.90;;;;;;5136724;27;20080;-70
2022/12/02 04:50:27;;;;;;;32.75;15.02;;;3.70;99.90;;;;;;5136941;27;20046;-70
2022/12/02 04:52:52;;;;;;;35.30;15.68;;;3.80;99.90;;;;;;5118947;27;20440;-70
2022/12/02 04:55:18;;;;;;;33.65;14.80;;;3.90;99.90;;;;;;5136559;27;20137;-70
2022/12/02 04:57:44;;;;;;;32.58;14.45;;;4.00;99.90;;;;;;5136496;27;20511;-70
2022/12/02 05:00:10;;;;;;;36.20;16.00;;;3.00;99.90;;;;;;5136366;27;20111;-70
2022/12/02 05:02:36;;;;;;;32.83;14.02;;;3.30;99.90;;;;;;5152112;27;20035;-70
2022/12/02 05:05:02;;;;;;;32.00;14.45;;;3.60;99.90;;;;;;5118064;27;20051;-70
2022/12/02 05:07:27;;;;;;;36.72;15.70;;;3.90;99.90;;;;;;5136380;27;20438;-70
2022/12/02 05:09:53;;;;;;;35.35;14.85;;;3.30;99.90;;;;;;5135597;27;20134;-70
2022/12/02 05:12:19;;;;;;;33.90;15.85;;;3.30;99.90;;;;;;5136180;27;20478;-70
2022/12/02 05:14:45;;;;;;;34.70;15.45;;;3.30;99.90;;;;;;5152286;27;20395;-70
2022/12/02 05:17:10;;;;;;;35.10;15.95;;;3.40;99.90;;;;;;5135852;27;20050;-70
2022/12/02 05:19:36;;;;;;;34.00;15.25;;;4.40;99.90;;;;;;5136339;27;20064;-70
2022/12/02 05:22:02;;;;;;;36.67;16.05;;;3.60;99.90;;;;;;5136542;27;20039;-70
2022/12/02 05:24:27;;;;;;;36.85;14.98;;;3.30;99.90;;;;;;5118010;27;20126;-70
2022/12/02 05:26:53;;;;;;;36.00;14.93;;;3.30;99.90;;;;;;5118707;27;20047;-70
2022/12/02 05:29:19;;;;;;;39.03;16.27;;;2.50;99.90;;;;;;5117511;27;20043;-70
2022/12/02 05:31:44;;;;;;;32.10;13.73;;;3.40;99.90;;;;;;5135524;27;20039;-69
2022/12/02 05:34:10;;;;;;;38.03;16.30;;;3.40;99.90;;;;;;5118308;27;20047;-70
2022/12/02 05:36:36;;;;;;;33.78;14.95;;;3.70;99.90;;;;;;5134586;27;20050;-70
2022/12/02 05:39:01;;;;;;;42.33;16.65;;;4.70;99.90;;;;;;5151365;27;20046;-70
2022/12/02 05:41:27;;;;;;;41.25;16.73;;;3.60;99.90;;;;;;5117615;27;20049;-70
2022/12/02 05:43:53;;;;;;;36.78;15.13;;;3.20;99.90;;;;;;5096624;28;20492;-69
2022/12/02 05:46:20;;;;;;;34.92;14.32;;;4.00;99.90;;;;;;5093968;28;20048;-70
2022/12/02 05:48:48;;;;;;;35.60;14.13;;;3.50;99.90;;;;;;5094609;28;20077;-70
2022/12/02 05:51:20;;;;;;;38.75;16.58;;;4.40;99.90;;;;;;5095110;28;20086;-70
2022/12/02 05:53:47;;;;;;;40.03;15.88;;;3.40;99.90;;;;;;5094614;28;20044;-70
2022/12/02 05:56:26;;;;;;;38.13;14.95;;;4.10;99.90;;;;;;5093053;28;20059;-70
2022/12/02 05:58:58;;;;;;;38.28;14.70;;;4.00;99.90;;;;;;5094075;28;20104;-70
2022/12/02 06:01:27;;;;;;;37.53;15.15;;;4.50;99.90;;;;;;5094421;28;20177;-70
2022/12/02 06:03:53;;;;;;;36.60;14.98;;;3.40;99.90;;;;;;5094282;28;20040;-70
2022/12/02 06:06:26;;;;;;;43.33;15.57;;;3.40;99.90;;;;;;5093538;28;20036;-70
2022/12/02 06:08:54;;;;;;;39.67;16.13;;;4.40;99.90;;;;;;5094917;28;20047;-70
2022/12/02 06:11:29;;;;;;;36.03;15.52;;;3.50;99.90;;;;;;5094222;28;20054;-70
2022/12/02 06:14:02;;;;;;;42.40;15.55;;;4.30;99.90;;;;;;5094185;28;20044;-70
2022/12/02 06:16:30;;;;;;;38.20;15.85;;;3.40;99.90;;;;;;5094754;28;20048;-70
2022/12/02 06:18:59;;;;;;;38.28;17.08;;;3.70;99.90;;;;;;5094061;28;20085;-70
2022/12/02 06:21:25;;;;;;;35.78;14.82;;;3.50;99.90;;;;;;5094151;28;20087;-70
2022/12/02 06:23:56;;;;;;;34.88;14.75;;;3.80;99.90;;;;;;5094035;28;20058;-70
2022/12/02 06:26:22;;;;;;;39.42;14.82;;;3.50;99.90;;;;;;5094553;28;20052;-70
2022/12/02 06:28:57;;;;;;;32.90;14.43;;;3.80;99.90;;;;;;5092933;28;20055;-70
2022/12/02 06:31:30;;;;;;;34.42;14.98;;;3.80;99.90;;;;;;5093319;28;20078;-70
2022/12/02 06:33:57;;;;;;;29.55;13.20;;;3.50;99.90;;;;;;5076416;28;20063;-69
2022/12/02 06:36:30;;;;;;;31.77;13.48;;;3.40;99.90;;;;;;5093727;28;20052;-70
2022/12/02 06:39:00;;;;;;;35.97;14.25;;;4.10;99.90;;;;;;5093517;28;20036;-70
2022/12/02 06:41:32;;;;;;;38.22;14.65;;;3.30;99.90;;;;;;5093202;28;20056;-70
2022/12/02 06:46:44;;;;;;;36.13;14.32;;;3.30;99.90;;;;;;5134250;27;20051;-70
2022/12/02 06:49:22;;;;;;;37.88;14.82;;;3.50;99.90;;;;;;5133422;27;20046;-69
2022/12/02 06:51:59;;;;;;;37.30;15.20;;;4.30;99.90;;;;;;5134560;27;20047;-70
2022/12/02 06:54:28;;;;;;;30.70;13.18;;;3.70;99.90;;;;;;5116509;28;20051;-70
2022/12/02 06:56:56;;;;;;;36.05;15.10;;;4.10;99.90;;;;;;5116374;28;20043;-70
2022/12/02 06:59:23;;;;;;;35.40;13.93;;;3.20;99.90;;;;;;5134311;28;20118;-70
2022/12/02 07:02:00;;;;;;;39.42;15.57;;;3.40;99.90;;;;;;5116119;28;20058;-70
2022/12/02 07:04:29;;;;;;;35.13;15.32;;;3.10;99.90;;;;;;5117197;28;20051;-70
2022/12/02 07:07:00;;;;;;;35.97;14.70;;;3.20;99.90;;;;;;5134110;28;20050;-71
2022/12/02 07:09:39;;;;;;;42.33;15.90;;;3.60;99.90;;;;;;5116360;28;20479;-70
2022/12/02 07:12:13;;;;;;;34.60;13.80;;;3.00;99.90;;;;;;5134499;28;20073;-69
2022/12/02 07:14:46;;;;;;;38.17;16.10;;;3.40;99.90;;;;;;5134648;28;20043;-70
2022/12/02 07:17:12;;;;;;;;;;;4.00;99.90;;;;;;5116376;28;20043;-70
2022/12/02 07:19:42;;;;;;;35.20;12.75;;;3.00;99.90;;;;;;5134529;28;19919;-70
2022/12/02 07:22:20;;;;;;;41.38;15.45;;;3.90;99.90;;;;;;5134358;28;20115;-70
2022/12/02 07:25:12;;;;;;;38.92;14.43;;;4.10;99.90;;;;;;5134375;28;20122;-70
2022/12/02 07:27:40;;;;;;;34.75;14.45;;;3.00;99.90;;;;;;5114332;28;20092;-70
2022/12/02 07:30:19;;;;;;;33.70;13.13;;;3.60;99.90;;;;;;5134177;28;20368;-69
2022/12/02 07:32:45;;;;;;;34.10;13.20;;;3.50;99.90;;;;;;5134236;28;20047;-70
2022/12/02 07:35:10;;;;;;;38.72;15.05;;;3.30;99.90;;;;;;5116075;28;20052;-69
2022/12/02 07:37:36;;;;;;;35.20;14.40;;;3.40;99.90;;;;;;5150142;27;20053;-70
2022/12/02 07:40:02;;;;;;;37.67;14.52;;;3.90;99.90;;;;;;5134004;28;20101;-70
2022/12/02 07:42:28;;;;;;;33.25;14.20;;;2.90;99.90;;;;;;5116050;28;20372;-70
2022/12/02 07:44:53;;;;;;;40.47;15.63;;;3.90;99.90;;;;;;5134642;28;20461;-70
2022/12/02 07:47:19;;;;;;;36.67;14.40;;;3.40;99.90;;;;;;5134108;28;20413;-70
2022/12/02 07:49:44;;;;;;;39.15;15.98;;;3.50;99.90;;;;;;5133633;28;20131;-70
2022/12/02 07:52:10;;;;;;;36.28;15.23;;;3.10;99.90;;;;;;5134010;28;20058;-70
2022/12/02 07:54:36;;;;;;;36.05;15.55;;;3.00;99.90;;;;;;5134017;28;20047;-70
2022/12/02 07:57:01;;;;;;;36.85;14.48;;;2.90;99.90;;;;;;5151033;27;20379;-70
2022/12/02 07:59:27;;;;;;;33.85;13.27;;;3.00;99.90;;;;;;5118645;27;20039;-70
2022/12/02 08:01:53;;;;;;;30.55;12.80;;;2.90;99.90;;;;;;5120093;27;20035;-70
2022/12/02 08:04:18;;;;;;;37.45;14.13;;;3.10;99.90;;;;;;5138669;27;20046;-70
2022/12/02 08:06:44;;;;;;;30.52;12.80;;;3.70;99.90;;;;;;5120139;27;20176;-70
2022/12/02 08:09:10;;;;;;;35.78;13.60;;;3.60;99.90;;;;;;5137420;27;20067;-70
2022/12/02 08:11:36;;;;;;;35.50;13.00;;;3.20;99.90;;;;;;5137453;27;20047;-70
2022/12/02 08:14:01;;;;;;;32.65;14.32;;;3.20;99.90;;;;;;5137422;27;20046;-70
2022/12/02 08:16:27;;;;;;;36.33;14.27;;;3.90;99.90;;;;;;5103065;27;20063;-70
2022/12/02 08:18:53;;;;;;;36.85;14.02;;;3.60;99.90;;;;;;5119272;27;20047;-70
2022/12/02 08:21:18;;;;;;;34.00;13.30;;;4.00;99.90;;;;;;5119024;27;20043;-70
2022/12/02 08:23:44;;;;;;;33.10;15.13;;;2.90;99.90;;;;;;5137749;27;20467;-70
2022/12/02 08:26:10;;;;;;;30.48;12.45;;;3.80;99.90;;;;;;5119733;27;20051;-70
2022/12/02 08:28:36;;;;;;;34.88;14.07;;;3.20;99.90;;;;;;5154200;27;20417;-70
2022/12/02 08:31:01;;;;;;;35.75;14.43;;;3.10;99.90;;;;;;5137652;27;20047;-70
2022/12/02 08:33:27;;;;;;;31.75;13.10;;;3.30;99.90;;;;;;5118927;27;20094;-70
2022/12/02 08:35:52;;;;;;;40.28;13.32;;;2.90;99.90;;;;;;5137094;27;20043;-70
2022/12/02 08:38:19;;;;;;;28.42;11.45;;;2.80;99.90;;;;;;5119635;27;20047;-70
2022/12/02 08:40:44;;;;;;;32.38;13.88;;;3.40;99.90;;;;;;5136988;27;20050;-70
2022/12/02 08:43:10;;;;;;;38.88;14.65;;;4.00;99.90;;;;;;5136812;27;20051;-68
2022/12/02 08:45:36;;;;;;;35.22;14.15;;;4.00;99.90;;;;;;5137470;27;20047;-68
2022/12/02 08:48:02;;;;;;;34.35;14.30;;;3.40;99.90;;;;;;5136936;27;20065;-69
2022/12/02 08:50:27;;;;;;;38.67;15.23;;;2.80;99.90;;;;;;5118987;27;20520;-68
2022/12/02 08:52:53;;;;;;;35.78;14.20;;;3.10;99.90;;;;;;5136719;27;20131;-69
2022/12/02 08:55:19;;;;;;;35.47;14.18;;;2.90;99.90;;;;;;5118633;27;20082;-69
2022/12/02 08:57:45;;;;;;;32.65;13.40;;;2.90;99.90;;;;;;5136922;27;20039;-68
2022/12/02 09:00:11;;;;;;;36.13;14.45;;;4.00;99.90;;;;;;5100826;27;20039;-69
2022/12/02 09:02:37;;;;;;;32.85;13.38;;;2.80;99.90;;;;;;5136579;27;20159;-69
2022/12/02 09:05:03;;;;;;;39.22;14.75;;;3.50;99.90;;;;;;5118412;27;20059;-71
2022/12/02 09:07:29;;;;;;;39.65;15.77;;;3.00;99.90;;;;;;5136495;27;20054;-68
2022/12/02 09:09:55;;;;;;;40.10;16.13;;;3.30;99.90;;;;;;5136077;27;20039;-70
2022/12/02 09:12:20;;;;;;;37.92;15.63;;;3.50;99.90;;;;;;5137163;27;20055;-68
2022/12/02 09:14:46;;;;;;;37.13;15.85;;;3.60;99.90;;;;;;5136367;27;20043;-69
2022/12/02 09:17:12;;;;;;;37.70;15.82;;;3.40;99.90;;;;;;5101475;27;20043;-70
2022/12/02 09:19:37;;;;;;;38.47;15.23;;;3.80;99.90;;;;;;5136133;27;20043;-70
2022/12/02 09:22:03;;;;;;;30.20;12.90;;;3.10;99.90;;;;;;5135896;27;20148;-70
2022/12/02 09:24:29;;;;;;;41.10;16.33;;;2.90;99.90;;;;;;5136560;27;20071;-71
2022/12/02 09:26:54;;;;;;;41.45;16.67;;;3.20;99.90;;;;;;5100712;27;20047;-71
2022/12/02 09:29:20;;;;;;;36.67;15.27;;;2.70;99.90;;;;;;5135953;27;20050;-72
2022/12/02 09:31:46;;;;;;;35.17;15.82;;;3.50;99.90;;;;;;5117740;27;20058;-71
2022/12/02 09:34:11;;;;;;;41.42;15.65;;;2.90;99.90;;;;;;5117540;27;20064;-71
2022/12/02 09:36:37;;;;;;;36.78;16.05;;;2.90;99.90;;;;;;5117494;27;20081;-71
2022/12/02 09:39:03;;;;;;;39.22;14.75;;;3.00;99.90;;;;;;5135774;27;20050;-71
2022/12/02 09:41:29;;;;;;;37.67;15.25;;;3.40;99.90;;;;;;5117422;27;20046;-71
2022/12/02 09:43:55;;;;;;;37.97;14.65;;;3.20;99.90;;;;;;5151458;27;20384;-71
2022/12/02 09:46:21;;;;;;;38.03;15.10;;;3.30;99.90;;;;;;5118112;27;20487;-71
2022/12/02 09:48:47;;;;;;;42.03;15.07;;;3.10;99.90;;;;;;5117941;27;20045;-71
2022/12/02 09:51:13;;;;;;;36.72;15.52;;;3.90;99.90;;;;;;5117656;27;20043;-71
2022/12/02 09:53:40;;;;;;;40.50;17.17;;;3.30;99.90;;;;;;5135621;27;20406;-71
2022/12/02 09:56:16;;;;;;;34.70;13.82;;;3.40;99.90;;;;;;5117313;27;20384;-72
2022/12/02 09:58:43;;;;;;;39.13;16.05;;;2.80;99.90;;;;;;5135172;27;20375;-71
2022/12/02 10:01:13;;;;;;;35.22;15.63;;;3.00;99.90;;;;;;5135409;27;20083;-72
2022/12/02 10:03:40;;;;;;;39.42;16.30;;;3.00;99.90;;;;;;5135489;27;20049;-71
2022/12/02 10:06:11;;;;;;;35.58;15.88;;;3.40;99.90;;;;;;5135387;27;20047;-72
2022/12/02 10:08:37;;;;;;;37.88;14.02;;;3.40;99.90;;;;;;5116793;27;20039;-71
2022/12/02 10:11:04;;;;;;;35.20;15.02;;;3.60;99.90;;;;;;5135562;27;20039;-72
2022/12/02 10:13:37;;;;;;;41.85;16.77;;;2.80;99.90;;;;;;5116806;27;20043;-71
2022/12/02 10:16:11;;;;;;;34.75;14.50;;;3.00;99.90;;;;;;5135852;27;20374;-70
2022/12/02 10:18:36;;;;;;;40.85;16.38;;;2.90;99.90;;;;;;5117739;27;20103;-70
2022/12/02 10:21:02;;;;;;;38.75;16.77;;;4.20;99.90;;;;;;5150471;27;20394;-71
2022/12/02 10:23:28;;;;;;;39.10;15.30;;;3.20;99.90;;;;;;5117001;27;20043;-70
2022/12/02 10:26:15;;;;;;;34.42;15.48;;;3.10;99.90;;;;;;5100865;27;20367;-70
2022/12/02 10:28:42;;;;;;;36.60;15.93;;;3.20;99.90;;;;;;5134157;27;20135;-71
2022/12/02 10:31:13;;;;;;;35.53;15.43;;;3.10;99.90;;;;;;5134912;27;20053;-70
2022/12/02 10:33:56;;;;;;;40.80;17.88;;;2.90;99.90;;;;;;5134913;27;20535;-71
2022/12/02 10:36:39;;;;;;;33.47;14.52;;;2.80;99.90;;;;;;5099734;27;20047;-70
2022/12/02 10:39:22;;;;;;;36.63;16.17;;;2.90;99.90;;;;;;5135418;27;20120;-71
2022/12/02 10:42:06;;;;;;;38.58;16.73;;;3.10;99.90;;;;;;5117153;27;20305;-70
2022/12/02 10:44:34;;;;;;;38.60;16.63;;;3.40;99.90;;;;;;5134733;27;20065;-70
2022/12/02 10:47:15;;;;;;;35.97;16.42;;;2.80;99.90;;;;;;5134767;27;20046;-70
2022/12/02 10:49:50;;;;;;;40.00;17.63;;;2.90;99.90;;;;;;5135200;27;20130;-71
2022/12/02 10:52:17;;;;;;;38.35;16.35;;;2.80;99.90;;;;;;5117473;27;20095;-70
2022/12/02 10:54:46;;;;;;;36.42;15.38;;;2.90;99.90;;;;;;5099939;28;20043;-70
2022/12/02 10:57:27;;;;;;;34.40;15.63;;;2.90;99.90;;;;;;5134628;28;20494;-71
2022/12/02 10:59:57;;;;;;;36.78;15.80;;;3.30;99.90;;;;;;5116177;28;20036;-71
2022/12/02 11:02:32;;;;;;;36.80;16.52;;;2.80;99.90;;;;;;5134564;28;20043;-71
2022/12/02 11:05:05;;;;;;;38.97;16.60;;;3.00;99.90;;;;;;5116637;28;20065;-71
2022/12/02 11:07:30;;;;;;;37.80;17.60;;;3.50;99.90;;;;;;5116583;28;20410;-70
2022/12/02 11:09:56;;;;;;;32.97;15.57;;;3.90;99.90;;;;;;5115972;28;20036;-71
2022/12/02 11:12:33;;;;;;;37.30;17.13;;;3.30;99.90;;;;;;5134500;28;20043;-70
2022/12/02 11:15:00;;;;;;;34.78;16.15;;;3.40;99.90;;;;;;5116755;28;20043;-70
2022/12/02 11:17:47;;;;;;;33.65;16.67;;;3.30;99.90;;;;;;5134462;28;20070;-71
2022/12/02 11:20:39;;;;;;;34.80;16.25;;;2.90;99.90;;;;;;5134597;28;20043;-72
2022/12/02 11:23:14;;;;;;;33.53;15.57;;;3.00;99.90;;;;;;5134147;28;20047;-71
2022/12/02 11:25:43;;;;;;;33.17;15.70;;;3.90;99.90;;;;;;5134346;28;20043;-70
2022/12/02 11:28:31;;;;;;;35.22;16.90;;;2.80;99.90;;;;;;5116058;28;20074;-70
2022/12/02 11:31:08;;;;;;;34.17;17.52;;;3.70;99.90;;;;;;5116899;28;20044;-70
2022/12/02 11:34:00;;;;;;;32.38;15.75;;;3.20;99.90;;;;;;5120839;27;20422;-70
2022/12/02 11:36:28;;;;;;;37.38;16.25;;;4.00;99.90;;;;;;5120547;27;20046;-70
2022/12/02 11:38:55;;;;;;;35.30;16.35;;;3.30;99.90;;;;;;5138065;27;20041;-70
2022/12/02 11:41:25;;;;;;;35.25;17.30;;;3.00;99.90;;;;;;5138726;27;20174;-70
2022/12/02 11:44:07;;;;;;;42.38;16.65;;;3.00;99.90;;;;;;5138312;27;20070;-70
2022/12/02 11:46:51;;;;;;;36.05;17.85;;;2.90;99.90;;;;;;5120263;27;20074;-70
2022/12/02 11:49:30;;;;;;;36.03;17.30;;;3.60;99.90;;;;;;5119704;27;20117;-70
2022/12/02 11:52:17;;;;;;;33.67;17.00;;;3.10;99.90;;;;;;5119705;27;20050;-70
2022/12/02 11:54:56;;;;;;;34.20;16.17;;;2.90;99.90;;;;;;5137916;27;20043;-70
2022/12/02 11:57:39;;;;;;;36.40;17.45;;;3.00;99.90;;;;;;5137944;27;20043;-70
2022/12/02 12:00:21;;;;;;;36.53;17.35;;;3.50;99.90;;;;;;5119163;27;20043;-70
2022/12/02 12:02:46;;;;;;;36.70;16.73;;;3.20;99.90;;;;;;5137542;27;20502;-70
2022/12/02 12:05:12;;;;;;;36.40;17.77;;;3.40;99.90;;;;;;5154151;27;20130;-70
2022/12/02 12:07:47;;;;;;;36.15;16.52;;;3.10;99.90;;;;;;5137746;27;20043;-70
2022/12/02 12:10:30;;;;;;;38.00;18.17;;;3.40;99.90;;;;;;5137671;27;20043;-70
2022/12/02 12:13:11;;;;;;;;;;;3.00;99.90;;;;;;5138667;27;20051;-70
2022/12/02 12:15:50;;;;;;;38.67;18.48;;;3.10;99.90;;;;;;5137809;27;19925;-70
2022/12/02 12:18:34;;;;;;;38.05;17.80;;;3.10;99.90;;;;;;5137441;27;20082;-70
2022/12/02 12:21:00;;;;;;;38.53;17.35;;;3.60;99.90;;;;;;5137760;27;20051;-70
2022/12/02 12:23:43;;;;;;;37.08;17.77;;;3.50;99.90;;;;;;5137757;27;20497;-70
2022/12/02 12:26:29;;;;;;;34.78;15.77;;;3.00;99.90;;;;;;5137383;27;20051;-70
2022/12/02 12:28:59;;;;;;;38.80;18.83;;;3.00;99.90;;;;;;5137094;27;20052;-70
2022/12/02 12:31:25;;;;;;;36.55;18.25;;;3.00;99.90;;;;;;5119868;27;20309;-71
2022/12/02 12:33:51;;;;;;;40.65;19.33;;;3.00;99.90;;;;;;5118972;27;20141;-71
2022/12/02 12:36:17;;;;;;;35.97;17.48;;;2.90;99.90;;;;;;5119603;27;20086;-71
2022/12/02 12:38:43;;;;;;;37.88;18.05;;;3.00;99.90;;;;;;5136974;27;20131;-71
2022/12/02 12:41:08;;;;;;;33.92;17.33;;;2.90;99.90;;;;;;5119203;27;20046;-71
2022/12/02 12:43:34;;;;;;;35.47;17.63;;;3.40;99.90;;;;;;5135882;27;20135;-71
2022/12/02 12:46:00;;;;;;;31.65;15.85;;;3.70;99.90;;;;;;5136876;27;20460;-70
2022/12/02 12:48:25;;;;;;;31.27;15.45;;;4.40;99.90;;;;;;5119626;27;20084;-70
2022/12/02 12:50:51;;;;;;;34.50;15.20;;;3.00;99.90;;;;;;5118870;27;20050;-70